Terminal Aerodrome Forecast
Issued by NWS Twin Cities, MN

Home | Current Version | Previous Version | Graphics & Text | Print | Product List | Glossary On
Versions: 1 2 3 4 5 6 7 8 9 10 11 12 13 14 15 16 17 18 19 20 21 22 23 24 25 26 27 28 29 30 31 32 33
000
FTUS43 KMPX 221435 AAA
TAFMSP
TAF AMD
KMSP 221435Z 2215/2318 15010KT P6SM SCT150 BKN250 WS020/20040KT
     FM221600 17015G24KT P6SM SCT150
     FM230000 18011KT P6SM SCT150
     FM230300 18008KT P6SM SCT200 WS020/21050KT
     FM231000 18007KT P6SM SCT200=

USA.gov is the U.S. government's official web portal to all federal, state and local government web resources and services.